createdAt,value
2022-12-13T00:01:09.055Z,-4.67
2022-12-13T00:11:10.390Z,-4.67
2022-12-13T00:21:11.673Z,-4.73
2022-12-13T00:31:53.391Z,-4.79
2022-12-13T00:41:34.224Z,-4.73
2022-12-13T00:51:35.536Z,-4.79
2022-12-13T01:01:37.012Z,-4.81
2022-12-13T01:11:38.310Z,-4.85
2022-12-13T01:21:39.596Z,-4.97
2022-12-13T01:31:41.924Z,-5.07
2022-12-13T01:41:43.366Z,-5.05
2022-12-13T01:51:44.600Z,-5.13
2022-12-13T02:01:45.993Z,-5.18
2022-12-13T02:11:47.384Z,-5.21
2022-12-13T02:21:48.638Z,-5.27
2022-12-13T02:31:49.958Z,-5.28
2022-12-13T02:41:51.261Z,-5.31
2022-12-13T02:51:52.511Z,-5.33
2022-12-13T03:01:53.766Z,-5.53
2022-12-13T03:12:30.083Z,-5.47
2022-12-13T03:22:31.378Z,-5.50
2022-12-13T03:32:32.735Z,-5.44
2022-12-13T03:42:33.984Z,-5.35
2022-12-13T03:52:35.235Z,-5.28
2022-12-13T04:02:36.593Z,-5.38
2022-12-13T04:12:56.853Z,-5.34
2022-12-13T04:23:09.969Z,-5.32
2022-12-13T04:33:11.881Z,-5.44
2022-12-13T04:43:13.201Z,-5.49
2022-12-13T04:53:14.951Z,-5.49
2022-12-13T05:03:16.297Z,-5.59
2022-12-13T05:13:17.556Z,-5.72
2022-12-13T05:23:22.416Z,-5.78
2022-12-13T05:33:24.546Z,-5.77
2022-12-13T05:43:43.215Z,-5.90
2022-12-13T05:53:48.579Z,-5.96
2022-12-13T06:03:53.170Z,-5.99
2022-12-13T06:14:00.619Z,-5.92
2022-12-13T06:24:05.549Z,-5.86
2022-12-13T06:34:14.999Z,-5.85
2022-12-13T06:44:16.677Z,-5.87
2022-12-13T06:54:21.609Z,-5.97
2022-12-13T07:04:28.916Z,-5.88
2022-12-13T07:14:32.127Z,-5.84
2022-12-13T07:24:42.566Z,-5.84
2022-12-13T07:34:44.043Z,-5.80
2022-12-13T07:44:45.379Z,-5.81
2022-12-13T07:54:46.673Z,-5.65
2022-12-13T08:04:54.666Z,-5.65
2022-12-13T08:14:56.535Z,-5.49
2022-12-13T08:24:57.928Z,-5.42
2022-12-13T08:34:59.239Z,-5.26
2022-12-13T08:45:00.516Z,-5.04
2022-12-13T08:55:01.849Z,-4.97
2022-12-13T09:05:03.602Z,-4.66
2022-12-13T09:15:04.857Z,-4.57
2022-12-13T09:25:24.591Z,-4.30
2022-12-13T09:35:26.036Z,-4.19
2022-12-13T09:45:31.959Z,-4.10
2022-12-13T09:55:33.664Z,-3.94
2022-12-13T10:05:39.825Z,-3.95
2022-12-13T10:15:41.748Z,-3.84
2022-12-13T10:25:43.047Z,-3.84
2022-12-13T10:35:44.364Z,-3.74
2022-12-13T10:45:45.713Z,-3.58
2022-12-13T10:55:47.009Z,-3.52
2022-12-13T11:05:50.239Z,-3.40
2022-12-13T11:15:51.475Z,-3.31
2022-12-13T11:25:52.994Z,-3.18
2022-12-13T11:35:55.418Z,-3.06
2022-12-13T11:45:56.781Z,-2.89
2022-12-13T11:55:58.082Z,-2.84
2022-12-13T12:05:59.333Z,-2.64
2022-12-13T12:16:00.701Z,-2.56
2022-12-13T12:26:02.022Z,-2.71
2022-12-13T12:36:03.287Z,-2.51
2022-12-13T12:46:04.618Z,-2.40
2022-12-13T12:56:05.939Z,-2.24
2022-12-13T13:06:07.304Z,-2.15
2022-12-13T13:16:08.586Z,-2.30
2022-12-13T13:26:27.182Z,-2.28
2022-12-13T13:36:30.481Z,-2.29
2022-12-13T13:46:31.767Z,-2.34
2022-12-13T14:18:04.029Z,-2.27
2022-12-13T14:28:05.372Z,-2.34
2022-12-13T14:38:06.742Z,-2.48
2022-12-13T14:48:08.079Z,-2.49
2022-12-13T14:58:09.363Z,-2.54
2022-12-13T15:08:11.486Z,-2.50
2022-12-13T15:18:12.973Z,-2.58
2022-12-13T15:28:18.225Z,-2.70
2022-12-13T15:38:28.526Z,-2.74
2022-12-13T15:48:31.424Z,-2.75
2022-12-13T15:58:32.677Z,-2.68
2022-12-13T16:08:35.601Z,-2.79
2022-12-13T16:18:36.848Z,-2.84
2022-12-13T16:28:38.313Z,-2.86
2022-12-13T16:38:39.737Z,-2.87
2022-12-13T16:48:46.005Z,-2.85
2022-12-13T16:58:50.098Z,-2.79
2022-12-13T17:08:51.996Z,-2.93
2022-12-13T17:19:00.325Z,-2.82
2022-12-13T18:00:52.011Z,-2.90
2022-12-13T18:11:23.545Z,-2.85
2022-12-13T18:21:15.457Z,-2.89
2022-12-13T18:31:20.814Z,-2.90
2022-12-13T18:41:22.327Z,-2.94
2022-12-13T18:51:24.240Z,-2.90
2022-12-13T19:01:36.634Z,-2.88
2022-12-13T19:11:38.195Z,-2.89
2022-12-13T19:21:39.595Z,-2.91
2022-12-13T19:32:05.408Z,-3.00
2022-12-13T19:42:29.796Z,-2.88
2022-12-13T20:14:05.028Z,-2.92
2022-12-13T20:34:42.450Z,-2.81
2022-12-13T20:44:43.908Z,-2.82
2022-12-13T20:54:47.561Z,-2.80
2022-12-13T21:04:48.987Z,-2.82
2022-12-13T21:14:50.299Z,-2.71
2022-12-13T21:24:51.570Z,-2.71
2022-12-13T21:34:52.877Z,-2.69
2022-12-13T21:44:58.911Z,-2.59
2022-12-13T21:55:30.475Z,-2.51
2022-12-13T22:05:24.500Z,-2.51
2022-12-13T22:15:25.758Z,-2.57
2022-12-13T22:25:27.075Z,-2.53
2022-12-13T22:35:28.330Z,-2.43
2022-12-13T22:45:29.720Z,-2.42
2022-12-13T22:55:31.084Z,-2.38
2022-12-13T23:05:32.462Z,-2.40
2022-12-13T23:15:33.769Z,-2.43
2022-12-13T23:25:35.746Z,-2.34
2022-12-13T23:35:37.030Z,-2.26
2022-12-13T23:45:38.268Z,-2.38
2022-12-13T23:55:39.526Z,-2.20
